Time;durP1;ratioP1;P1;durP2;ratioP2;P2;SDS_P1;SDS_P2;PMS_P1;PMS_P2;Temp;Humidity;BMP_temperature;BMP_pressure;BME280_temperature;BME280_humidity;BME280_pressure;Samples;Min_cycle;Max_cycle;Signal;HPM_P1;HPM_P2
2022/12/22 03:27:30;;;;;;;119.05;26.48;;;8.30;99.90;;;;;;4997700;28;20081;-83
2022/12/22 03:29:56;;;;;;;123.10;28.87;;;8.30;99.90;;;;;;5007458;28;20058;-83
2022/12/22 03:32:21;;;;;;;148.47;29.80;;;8.30;99.90;;;;;;4968925;28;20278;-84
2022/12/22 03:34:47;;;;;;;122.97;25.77;;;8.30;99.90;;;;;;4972061;28;20280;-83
2022/12/22 03:37:13;;;;;;;130.43;28.83;;;8.30;99.90;;;;;;4985846;28;20037;-84
2022/12/22 03:39:41;;;;;;;109.03;27.47;;;8.30;99.90;;;;;;4967586;28;20285;-83
2022/12/22 03:47:39;;;;;;;135.23;29.92;;;8.30;99.90;;;;;;5004400;28;20045;-84
2022/12/22 03:50:05;;;;;;;111.33;25.60;;;8.30;99.90;;;;;;4971554;28;20493;-84
2022/12/22 03:52:31;;;;;;;139.55;29.60;;;8.30;99.90;;;;;;5006201;28;20709;-84
2022/12/22 03:54:57;;;;;;;153.00;30.13;;;8.30;99.90;;;;;;4966201;28;20077;-83
2022/12/22 03:57:22;;;;;;;160.55;30.85;;;8.30;99.90;;;;;;4987421;28;20029;-84
2022/12/22 03:59:48;;;;;;;139.67;28.87;;;8.30;99.90;;;;;;4992279;28;20033;-84
2022/12/22 04:02:14;;;;;;;172.93;30.45;;;8.30;99.90;;;;;;4987862;28;20069;-84
2022/12/22 04:04:39;;;;;;;142.53;29.40;;;8.30;99.90;;;;;;4974803;28;20036;-84
2022/12/22 04:07:05;;;;;;;145.93;30.02;;;8.30;99.90;;;;;;4976985;28;20304;-84
2022/12/22 04:09:31;;;;;;;124.43;27.50;;;8.30;99.90;;;;;;4988469;28;20038;-85
2022/12/22 04:14:41;;;;;;;115.85;26.73;;;8.30;99.90;;;;;;4999406;28;19917;-84
2022/12/22 04:17:08;;;;;;;106.77;26.77;;;8.30;99.90;;;;;;4973806;28;20509;-84
2022/12/22 04:19:34;;;;;;;138.35;30.90;;;8.30;99.90;;;;;;5006976;28;20843;-84
2022/12/22 04:22:00;;;;;;;102.05;26.02;;;8.30;99.90;;;;;;4968447;28;20038;-83
2022/12/22 04:24:26;;;;;;;107.20;25.73;;;8.30;99.90;;;;;;4983132;28;20152;-84
2022/12/22 04:26:52;;;;;;;117.63;26.45;;;8.30;99.90;;;;;;5004899;28;20095;-84
2022/12/22 04:29:17;;;;;;;134.57;28.42;;;8.30;99.90;;;;;;5006900;28;20429;-84
2022/12/22 04:31:43;;;;;;;98.97;25.10;;;8.30;99.90;;;;;;4979524;28;20038;-84
2022/12/22 04:34:09;;;;;;;114.55;26.95;;;8.30;99.90;;;;;;5019109;28;20037;-85
2022/12/22 04:36:35;;;;;;;138.45;29.00;;;8.30;99.90;;;;;;4989013;28;20038;-85
2022/12/22 04:39:00;;;;;;;137.07;27.87;;;8.30;99.90;;;;;;4990564;28;20124;-85
2022/12/22 04:41:26;;;;;;;131.05;26.33;;;8.30;99.90;;;;;;5001692;28;20289;-84
2022/12/22 04:43:52;;;;;;;150.67;30.47;;;8.20;99.90;;;;;;5001041;28;20044;-84
2022/12/22 04:46:17;;;;;;;150.70;30.58;;;8.20;99.90;;;;;;4969779;28;20495;-84
2022/12/22 04:48:43;;;;;;;230.73;34.03;;;8.20;99.90;;;;;;4968332;28;20055;-84
2022/12/22 04:51:09;;;;;;;205.13;31.17;;;8.20;99.90;;;;;;5001777;28;20096;-84
2022/12/22 04:53:34;;;;;;;284.87;37.30;;;8.20;99.90;;;;;;5001956;28;20645;-85
2022/12/22 04:56:03;;;;;;;255.73;37.33;;;8.20;99.90;;;;;;4971225;28;20316;-85
2022/12/22 04:58:29;;;;;;;232.73;34.55;;;8.10;99.90;;;;;;5008703;28;20315;-84
2022/12/22 05:00:55;;;;;;;182.70;33.42;;;8.10;99.90;;;;;;5012616;28;20038;-85
2022/12/22 05:03:21;;;;;;;128.45;27.33;;;8.10;99.90;;;;;;4983155;28;20120;-85
2022/12/22 05:05:47;;;;;;;152.13;31.17;;;8.10;99.90;;;;;;4999600;28;20121;-84
2022/12/22 05:08:13;;;;;;;139.35;28.20;;;8.10;99.90;;;;;;4988413;28;20520;-85
2022/12/22 05:10:39;;;;;;;148.67;29.90;;;8.10;99.90;;;;;;4992318;28;20111;-85
2022/12/22 05:13:05;;;;;;;155.73;30.65;;;8.10;99.90;;;;;;5004525;28;20312;-85
2022/12/22 05:15:33;;;;;;;144.90;28.55;;;8.00;99.90;;;;;;4990027;28;20485;-85
2022/12/22 05:17:59;;;;;;;112.40;26.83;;;8.00;99.90;;;;;;5006027;28;20045;-85
2022/12/22 05:20:26;;;;;;;;;;;8.00;99.90;;;;;;5004374;28;20505;-85
2022/12/22 05:22:52;;;;;;;133.25;27.35;;;8.00;99.90;;;;;;4991314;28;20009;-86
2022/12/22 05:25:18;;;;;;;103.22;24.30;;;8.00;99.90;;;;;;4983890;28;20062;-84
2022/12/22 05:27:45;;;;;;;108.30;23.60;;;8.00;99.90;;;;;;4989333;28;20030;-84
2022/12/22 05:30:12;;;;;;;127.65;25.98;;;8.00;99.90;;;;;;5008436;28;20044;-85
2022/12/22 05:32:39;;;;;;;113.97;24.02;;;7.90;99.90;;;;;;5010864;28;20085;-85
2022/12/22 05:35:05;;;;;;;;;;;8.00;99.90;;;;;;5004773;28;20041;-86
2022/12/22 05:37:31;;;;;;;114.13;24.60;;;7.90;99.90;;;;;;5006020;28;20007;-84
2022/12/22 05:39:57;;;;;;;125.20;25.15;;;7.90;99.90;;;;;;4994931;28;20065;-84
2022/12/22 05:42:35;;;;;;;101.85;21.15;;;8.00;99.90;;;;;;4988316;28;20042;-84
2022/12/22 05:45:08;;;;;;;109.00;24.30;;;7.90;99.90;;;;;;5008129;28;20048;-84
2022/12/22 05:47:34;;;;;;;101.45;23.70;;;7.90;99.90;;;;;;5020409;28;20042;-83
2022/12/22 05:50:00;;;;;;;105.93;23.73;;;7.80;99.90;;;;;;4997425;28;20065;-84
2022/12/22 05:52:26;;;;;;;110.10;23.75;;;7.80;99.90;;;;;;4992490;28;20030;-83
2022/12/22 05:54:52;;;;;;;128.00;25.10;;;7.80;99.90;;;;;;4992248;28;20034;-84
2022/12/22 05:57:18;;;;;;;112.40;22.35;;;7.80;99.90;;;;;;4968464;28;20049;-83
2022/12/22 05:59:43;;;;;;;87.60;20.00;;;7.80;99.90;;;;;;4976701;28;20511;-78
2022/12/22 06:02:09;;;;;;;88.20;19.92;;;8.10;99.90;;;;;;4990202;28;20044;-79
2022/12/22 06:04:35;;;;;;;93.90;21.58;;;7.70;99.90;;;;;;5001945;28;20085;-80
2022/12/22 06:07:00;;;;;;;89.63;21.13;;;7.70;99.90;;;;;;5008432;28;20076;-80
2022/12/22 06:09:26;;;;;;;87.00;20.20;;;7.70;99.90;;;;;;4990994;28;20542;-80
2022/12/22 06:11:52;;;;;;;75.78;19.38;;;7.70;99.90;;;;;;5005002;28;20045;-80
2022/12/22 06:14:17;;;;;;;87.13;20.80;;;7.70;99.90;;;;;;5025046;28;20512;-80
2022/12/22 06:16:43;;;;;;;95.40;19.87;;;7.70;99.90;;;;;;5001477;28;20434;-80
2022/12/22 06:19:09;;;;;;;79.60;19.42;;;7.60;99.90;;;;;;5004916;28;20469;-79
2022/12/22 06:21:34;;;;;;;73.23;18.47;;;7.60;99.90;;;;;;5004817;28;20057;-79
2022/12/22 06:24:00;;;;;;;73.70;20.10;;;7.50;99.90;;;;;;5018864;28;20276;-80
2022/12/22 06:26:26;;;;;;;84.53;19.15;;;7.50;99.90;;;;;;5008299;28;20727;-80
2022/12/22 06:28:51;;;;;;;75.47;18.47;;;7.40;99.90;;;;;;4990855;28;20053;-80
2022/12/22 06:31:17;;;;;;;88.72;18.38;;;7.30;99.90;;;;;;5021983;28;20482;-80
2022/12/22 06:33:44;;;;;;;70.80;19.35;;;7.30;99.90;;;;;;4987509;28;20037;-80
2022/12/22 06:36:10;;;;;;;75.85;19.25;;;7.20;99.90;;;;;;5007361;28;20046;-80
2022/12/22 06:38:35;;;;;;;77.03;20.00;;;7.10;99.90;;;;;;5006273;28;20395;-80
2022/12/22 06:41:01;;;;;;;75.47;19.42;;;7.00;99.90;;;;;;5005330;28;20033;-80
2022/12/22 06:43:27;;;;;;;76.77;18.67;;;7.00;99.90;;;;;;5004599;28;20073;-80
2022/12/22 06:45:52;;;;;;;105.38;22.08;;;6.90;99.90;;;;;;4985519;28;20309;-80
2022/12/22 06:48:19;;;;;;;85.38;18.85;;;6.80;99.90;;;;;;5005556;28;20096;-80
2022/12/22 06:50:44;;;;;;;77.95;18.13;;;6.70;99.90;;;;;;5006596;28;20164;-80
2022/12/22 06:53:11;;;;;;;136.70;20.58;;;6.60;99.90;;;;;;5008519;28;20139;-80
2022/12/22 06:55:37;;;;;;;137.85;22.35;;;6.50;99.90;;;;;;5008235;28;20037;-80
2022/12/22 06:58:03;;;;;;;122.65;20.60;;;6.70;99.90;;;;;;5008085;28;20486;-80
2022/12/22 07:00:29;;;;;;;;;;;6.40;99.90;;;;;;4993528;28;20450;-80
2022/12/22 07:02:54;;;;;;;495.73;42.25;;;6.40;99.90;;;;;;5005355;28;20045;-79
2022/12/22 07:05:22;;;;;;;412.17;35.43;;;6.30;99.90;;;;;;5007630;28;20038;-82
2022/12/22 07:07:48;;;;;;;111.90;22.17;;;6.30;99.90;;;;;;5003799;28;20037;-80
2022/12/22 07:10:14;;;;;;;88.72;20.83;;;6.30;99.90;;;;;;5005467;28;20034;-81
2022/12/22 07:12:40;;;;;;;91.25;19.35;;;6.40;99.90;;;;;;5019942;28;20100;-81
2022/12/22 07:15:07;;;;;;;131.90;21.50;;;6.50;99.90;;;;;;5007923;28;20037;-81
2022/12/22 07:17:33;;;;;;;163.30;24.10;;;6.60;99.90;;;;;;5021511;28;20111;-81
2022/12/22 07:19:58;;;;;;;147.65;23.23;;;6.60;99.90;;;;;;4988393;28;20037;-81
2022/12/22 07:22:24;;;;;;;85.15;19.00;;;6.50;99.90;;;;;;5001678;28;20052;-81
2022/12/22 07:24:50;;;;;;;83.40;18.07;;;6.60;99.90;;;;;;5019999;28;20038;-81
2022/12/22 07:27:15;;;;;;;85.10;18.87;;;6.60;99.90;;;;;;5023324;28;20387;-81
2022/12/22 07:29:41;;;;;;;83.75;18.83;;;6.70;99.90;;;;;;5008336;28;20269;-81
2022/12/22 07:32:07;;;;;;;77.43;17.15;;;6.70;99.90;;;;;;5019906;28;20034;-81
2022/12/22 07:34:33;;;;;;;68.18;17.80;;;6.60;99.90;;;;;;4999733;28;20046;-81
2022/12/22 07:36:59;;;;;;;73.35;16.50;;;6.80;99.90;;;;;;4988447;28;20049;-81
2022/12/22 07:39:24;;;;;;;75.73;16.97;;;6.70;99.90;;;;;;5021565;28;20520;-81
2022/12/22 07:44:34;;;;;;;66.68;14.80;;;6.60;99.90;;;;;;5011885;28;20295;-81
2022/12/22 07:46:59;;;;;;;56.53;14.93;;;6.60;99.90;;;;;;4966302;28;20038;-81
2022/12/22 07:52:09;;;;;;;58.60;13.50;;;6.60;99.90;;;;;;5005691;28;20049;-80
2022/12/22 07:54:35;;;;;;;54.20;13.23;;;6.70;99.90;;;;;;4989715;28;20038;-81
2022/12/22 07:57:01;;;;;;;51.47;13.45;;;6.50;99.90;;;;;;5007194;28;20150;-81
2022/12/22 07:59:27;;;;;;;58.83;13.73;;;6.50;99.90;;;;;;5016527;28;20088;-80
2022/12/22 08:01:53;;;;;;;62.03;13.80;;;6.50;99.90;;;;;;4984623;28;20131;-80
2022/12/22 08:04:19;;;;;;;57.38;13.93;;;6.50;99.90;;;;;;4989045;28;20042;-80
2022/12/22 08:06:44;;;;;;;48.70;12.32;;;6.50;99.90;;;;;;5008229;28;20046;-80
2022/12/22 08:09:14;;;;;;;54.42;14.05;;;6.40;99.90;;;;;;4988761;28;20474;-80
2022/12/22 08:11:40;;;;;;;59.50;17.70;;;6.40;99.90;;;;;;5017918;28;20089;-81
2022/12/22 08:14:06;;;;;;;64.10;16.50;;;6.40;99.90;;;;;;5022714;28;20211;-81
2022/12/22 08:16:31;;;;;;;55.97;14.88;;;6.40;99.90;;;;;;5006986;28;20052;-81
2022/12/22 08:18:57;;;;;;;56.40;15.70;;;6.40;99.90;;;;;;4985316;28;20045;-81
2022/12/22 08:21:23;;;;;;;51.60;14.07;;;6.70;99.90;;;;;;4988861;28;20129;-81
2022/12/22 08:23:52;;;;;;;49.17;12.80;;;6.30;99.90;;;;;;5002932;28;20068;-81
2022/12/22 08:26:30;;;;;;;53.40;14.23;;;6.80;99.90;;;;;;5003376;28;20038;-81
2022/12/22 08:29:02;;;;;;;44.20;11.40;;;6.30;99.90;;;;;;5006494;28;20460;-81
2022/12/22 08:31:29;;;;;;;48.97;12.43;;;6.40;99.90;;;;;;5001834;28;20391;-81
2022/12/22 08:33:57;;;;;;;52.75;12.20;;;6.40;99.90;;;;;;5004339;28;20037;-81
2022/12/22 08:36:23;;;;;;;61.63;12.93;;;6.40;99.90;;;;;;5004938;28;20064;-81
2022/12/22 08:38:49;;;;;;;59.63;12.95;;;6.40;99.90;;;;;;4985875;28;20152;-81
2022/12/22 08:41:48;;;;;;;63.30;13.27;;;6.40;99.90;;;;;;5017901;28;20095;-81
2022/12/22 08:44:01;;;;;;;61.60;12.50;;;6.70;99.90;;;;;;5010035;28;20509;-81
2022/12/22 08:46:27;;;;;;;95.57;13.43;;;6.40;99.90;;;;;;5021666;28;20125;-81
2022/12/22 08:48:53;;;;;;;40.22;10.65;;;6.40;99.90;;;;;;5018119;28;20033;-81
2022/12/22 08:51:18;;;;;;;48.30;9.97;;;6.40;99.90;;;;;;4991471;28;20029;-81
2022/12/22 08:53:44;;;;;;;43.35;10.10;;;6.50;99.90;;;;;;5008717;28;20125;-81
2022/12/22 08:56:10;;;;;;;53.67;11.32;;;6.50;99.90;;;;;;4966418;28;20042;-81
2022/12/22 08:58:35;;;;;;;44.28;10.65;;;6.50;99.90;;;;;;5006811;28;20037;-81
2022/12/22 09:01:01;;;;;;;61.53;12.03;;;6.50;99.90;;;;;;4988068;28;20041;-81
2022/12/22 09:03:27;;;;;;;46.33;10.80;;;6.50;99.90;;;;;;5004008;28;20387;-81
2022/12/22 09:06:02;;;;;;;73.83;12.80;;;6.50;99.90;;;;;;5006223;28;20371;-81
2022/12/22 09:08:28;;;;;;;57.53;12.13;;;6.60;99.90;;;;;;5007604;28;20295;-81
2022/12/22 09:10:54;;;;;;;43.63;10.65;;;6.60;99.90;;;;;;4991702;28;20049;-80
2022/12/22 09:13:19;;;;;;;39.53;10.52;;;6.60;99.90;;;;;;4991481;28;20084;-81
2022/12/22 09:15:45;;;;;;;40.88;9.77;;;6.60;99.90;;;;;;5027540;28;20041;-81
2022/12/22 09:18:11;;;;;;;33.83;10.83;;;6.60;99.90;;;;;;4993473;28;20045;-81
2022/12/22 09:20:36;;;;;;;40.92;10.70;;;6.60;99.90;;;;;;5008460;28;20375;-81
2022/12/22 09:23:02;;;;;;;31.37;9.73;;;6.60;99.90;;;;;;5010473;28;20042;-81
2022/12/22 09:25:28;;;;;;;34.23;8.97;;;7.00;99.90;;;;;;5012183;28;20284;-81
2022/12/22 09:27:53;;;;;;;31.20;9.18;;;6.50;99.90;;;;;;5016001;28;20488;-81
2022/12/22 09:30:19;;;;;;;36.33;9.50;;;6.60;99.90;;;;;;5009813;28;20069;-81
2022/12/22 09:32:45;;;;;;;38.17;9.90;;;6.60;99.90;;;;;;5007755;28;20061;-81
2022/12/22 09:35:11;;;;;;;33.40;9.18;;;6.60;99.90;;;;;;5010038;28;20041;-81
2022/12/22 09:37:36;;;;;;;37.38;10.02;;;6.60;99.90;;;;;;5008465;28;20033;-79
2022/12/22 09:40:03;;;;;;;35.10;9.50;;;6.70;99.90;;;;;;5009169;28;20125;-80
2022/12/22 09:42:33;;;;;;;26.05;8.82;;;6.60;99.90;;;;;;5018843;28;20288;-80
2022/12/22 09:44:59;;;;;;;35.58;9.35;;;6.60;99.90;;;;;;5008030;28;20270;-80
2022/12/22 09:47:36;;;;;;;41.50;10.48;;;6.90;99.90;;;;;;5004315;28;20092;-80
2022/12/22 09:50:07;;;;;;;27.98;8.88;;;6.60;99.90;;;;;;5005200;28;20556;-80
2022/12/22 09:52:33;;;;;;;34.00;8.50;;;6.60;99.90;;;;;;5021145;28;20744;-80
2022/12/22 09:54:59;;;;;;;27.07;8.03;;;6.60;99.90;;;;;;5009170;28;20048;-80
2022/12/22 09:57:29;;;;;;;24.50;8.18;;;6.60;99.90;;;;;;5026944;28;20120;-80
2022/12/22 10:00:06;;;;;;;19.88;7.22;;;6.60;99.90;;;;;;5007200;28;20120;-80
2022/12/22 10:02:43;;;;;;;22.52;7.57;;;6.60;99.90;;;;;;5006810;28;20052;-80
2022/12/22 10:05:27;;;;;;;25.30;7.00;;;6.70;99.90;;;;;;5004747;28;20042;-80
2022/12/22 10:07:57;;;;;;;16.17;5.55;;;6.80;99.90;;;;;;5001742;28;20033;-79
2022/12/22 10:10:27;;;;;;;23.63;7.10;;;6.90;99.90;;;;;;4989154;28;20053;-79
2022/12/22 10:13:01;;;;;;;18.75;6.40;;;7.00;99.90;;;;;;5025308;28;20126;-80
2022/12/22 10:15:37;;;;;;;17.17;6.28;;;7.10;99.90;;;;;;5021524;28;20034;-80
2022/12/22 10:18:22;;;;;;;13.88;5.95;;;7.20;99.90;;;;;;5003405;28;20030;-80
2022/12/22 10:21:10;;;;;;;15.35;6.82;;;7.40;99.90;;;;;;5021145;28;20073;-80
2022/12/22 10:23:45;;;;;;;20.50;7.10;;;7.40;99.90;;;;;;5004032;28;20104;-80
2022/12/22 10:26:31;;;;;;;17.58;6.65;;;7.50;99.90;;;;;;5020268;28;20049;-80
2022/12/22 10:29:03;;;;;;;16.85;6.43;;;7.60;99.90;;;;;;5003717;28;20371;-80
2022/12/22 10:31:31;;;;;;;17.02;7.25;;;7.50;99.90;;;;;;5025868;28;20099;-80
2022/12/22 10:34:14;;;;;;;15.82;6.35;;;7.50;99.90;;;;;;5005719;28;20494;-80
2022/12/22 10:36:46;;;;;;;16.30;6.38;;;7.60;99.90;;;;;;5024433;28;20084;-79
2022/12/22 10:39:20;;;;;;;20.60;6.88;;;7.70;99.90;;;;;;5006100;28;20564;-79
2022/12/22 10:41:48;;;;;;;17.88;6.65;;;7.80;99.90;;;;;;5005477;28;20427;-79
2022/12/22 10:44:14;;;;;;;16.55;6.10;;;7.90;99.90;;;;;;5021962;28;20034;-79
2022/12/22 10:46:49;;;;;;;16.50;6.57;;;8.00;99.90;;;;;;5022705;28;20052;-79
2022/12/22 10:49:25;;;;;;;18.60;6.50;;;8.20;99.90;;;;;;4986169;28;20273;-80
2022/12/22 10:52:07;;;;;;;16.33;6.13;;;8.50;99.90;;;;;;5002865;28;20038;-79
2022/12/22 10:54:39;;;;;;;10.77;5.15;;;8.80;99.90;;;;;;5012571;28;20041;-79
2022/12/22 10:57:15;;;;;;;17.67;6.10;;;9.30;99.90;;;;;;5007570;28;20050;-79
2022/12/22 10:59:49;;;;;;;13.18;5.40;;;9.60;99.90;;;;;;5020817;28;20049;-80
2022/12/22 11:02:27;;;;;;;11.32;5.03;;;9.60;99.90;;;;;;5006860;28;20045;-80
2022/12/22 11:04:59;;;;;;;17.33;5.72;;;9.60;99.90;;;;;;5003271;28;21360;-79
2022/12/22 11:07:27;;;;;;;10.68;4.15;;;9.50;99.90;;;;;;5005924;28;20053;-80
2022/12/22 11:09:52;;;;;;;11.38;4.90;;;9.80;99.90;;;;;;5006590;28;20474;-80
2022/12/22 11:12:37;;;;;;;13.52;4.97;;;10.40;99.90;;;;;;5006387;28;20049;-80
2022/12/22 11:15:26;;;;;;;10.15;4.28;;;11.10;99.90;;;;;;5017034;28;20181;-79
2022/12/22 11:18:15;;;;;;;8.45;3.70;;;11.80;99.90;;;;;;5015096;28;20037;-79
2022/12/22 11:21:09;;;;;;;10.15;4.50;;;12.60;99.90;;;;;;5018064;28;20125;-79
2022/12/22 11:24:05;;;;;;;7.93;3.75;;;13.10;99.90;;;;;;5006224;28;20041;-79
2022/12/22 11:26:48;;;;;;;10.77;3.47;;;13.50;99.90;;;;;;5001455;28;20045;-79
2022/12/22 11:29:43;;;;;;;7.65;3.60;;;13.90;99.90;;;;;;5021933;28;20042;-79
2022/12/22 11:32:46;;;;;;;7.65;3.67;;;14.30;99.90;;;;;;5020603;28;20034;-79
2022/12/22 11:35:33;;;;;;;11.45;3.67;;;14.50;99.90;;;;;;5006732;28;20034;-79
2022/12/22 11:38:44;;;;;;;10.35;3.72;;;14.90;99.90;;;;;;5003238;28;20037;-79
2022/12/22 11:41:31;;;;;;;9.77;3.50;;;14.40;99.90;;;;;;5023940;28;20049;-79
2022/12/22 11:44:06;;;;;;;10.25;3.65;;;14.50;99.90;;;;;;5015458;28;20172;-79
2022/12/22 11:46:54;;;;;;;8.68;3.25;;;14.80;99.90;;;;;;5017696;28;20483;-79
2022/12/22 11:49:50;;;;;;;8.68;3.63;;;15.10;99.90;;;;;;5013361;28;20041;-79
2022/12/22 11:52:21;;;;;;;9.77;3.75;;;15.50;99.90;;;;;;5010889;28;20036;-79
2022/12/22 11:55:27;;;;;;;7.00;3.38;;;15.50;99.90;;;;;;5023294;28;20391;-79
2022/12/22 11:58:16;;;;;;;7.78;3.38;;;15.80;99.90;;;;;;5000601;28;20559;-79
2022/12/22 12:00:57;;;;;;;7.45;3.08;;;16.30;99.90;;;;;;5002253;28;20046;-78
2022/12/22 12:03:59;;;;;;;8.38;3.47;;;16.10;99.90;;;;;;5023531;28;20048;-79
2022/12/22 12:07:07;;;;;;;7.65;2.90;;;16.40;99.90;;;;;;4993562;28;20048;-79
2022/12/22 12:09:58;;;;;;;10.10;3.37;;;16.30;99.90;;;;;;4986511;28;20046;-79
2022/12/22 12:12:32;;;;;;;8.32;2.90;;;16.20;99.90;;;;;;5018279;28;20109;-79
2022/12/22 12:15:13;;;;;;;10.38;3.22;;;16.30;99.90;;;;;;5002149;28;20040;-79
2022/12/22 12:17:57;;;;;;;7.03;2.95;;;16.40;99.90;;;;;;4997469;28;20049;-79
2022/12/22 12:20:32;;;;;;;7.30;3.05;;;16.60;99.90;;;;;;5024457;28;20038;-79
2022/12/22 12:23:32;;;;;;;9.93;3.10;;;16.60;99.90;;;;;;5012773;28;20116;-78
2022/12/22 12:26:14;;;;;;;9.02;2.83;;;16.50;99.90;;;;;;5015174;28;20077;-79
2022/12/22 12:28:51;;;;;;;9.07;2.95;;;16.20;99.90;;;;;;5022167;28;20042;-79
2022/12/22 12:31:19;;;;;;;7.93;2.58;;;15.70;99.90;;;;;;5021911;28;20034;-79
2022/12/22 12:33:50;;;;;;;11.18;2.95;;;15.20;99.90;;;;;;5015975;28;20068;-79
2022/12/22 12:36:34;;;;;;;8.52;2.90;;;15.10;99.90;;;;;;5020645;28;20431;-79
2022/12/22 12:39:22;;;;;;;9.60;2.95;;;14.60;99.90;;;;;;5019832;28;20041;-79
2022/12/22 12:41:56;;;;;;;9.07;2.92;;;14.30;99.90;;;;;;5023092;28;20124;-79
2022/12/22 12:44:26;;;;;;;7.28;2.80;;;14.10;99.90;;;;;;5006330;28;20700;-81
2022/12/22 12:46:54;;;;;;;10.35;2.97;;;13.60;99.90;;;;;;5005764;28;21001;-80
2022/12/22 12:49:35;;;;;;;10.02;3.10;;;13.00;99.90;;;;;;5028804;28;20033;-80
2022/12/22 12:52:05;;;;;;;7.63;2.78;;;12.50;99.90;;;;;;5005909;28;20034;-80
2022/12/22 12:54:31;;;;;;;12.13;2.95;;;12.10;99.90;;;;;;5010970;28;20037;-80
2022/12/22 12:57:08;;;;;;;12.17;3.10;;;11.70;99.90;;;;;;5024830;28;20547;-80
2022/12/22 12:59:40;;;;;;;9.30;2.58;;;11.50;99.90;;;;;;5006897;28;20312;-80
2022/12/22 13:02:54;;;;;;;8.05;2.88;;;11.30;99.90;;;;;;5011059;28;20058;-80
2022/12/22 13:05:53;;;;;;;11.52;2.55;;;11.10;99.90;;;;;;4956810;28;20069;-80
2022/12/22 13:08:22;;;;;;;7.38;2.70;;;10.90;99.90;;;;;;5007592;28;20054;-80
2022/12/22 13:10:54;;;;;;;9.65;2.88;;;11.00;99.90;;;;;;5007583;28;20084;-81
2022/12/22 13:13:23;;;;;;;11.10;2.67;;;11.00;99.90;;;;;;5008564;28;20444;-80
2022/12/22 13:16:09;;;;;;;10.98;2.50;;;10.90;99.90;;;;;;5007847;28;20203;-80
2022/12/22 13:18:44;;;;;;;8.05;2.53;;;10.90;99.90;;;;;;5025627;28;20517;-80
2022/12/22 13:21:37;;;;;;;11.27;2.55;;;10.80;99.90;;;;;;5008488;28;20505;-80
2022/12/22 13:24:24;;;;;;;9.65;2.60;;;10.90;99.90;;;;;;4982112;28;20041;-80
2022/12/22 13:26:53;;;;;;;8.48;2.60;;;10.70;99.90;;;;;;5025601;28;20037;-80
2022/12/22 13:29:34;;;;;;;8.75;2.95;;;10.70;99.90;;;;;;5001655;28;20191;-80
2022/12/22 13:32:01;;;;;;;12.70;2.47;;;10.70;99.90;;;;;;5012329;28;20038;-80
2022/12/22 13:34:48;;;;;;;7.68;1.92;;;10.60;99.90;;;;;;5007862;28;20045;-80
2022/12/22 13:37:22;;;;;;;6.40;2.05;;;10.60;99.90;;;;;;5025639;28;20037;-80
2022/12/22 13:40:09;;;;;;;10.43;2.25;;;10.50;99.90;;;;;;5006954;28;20551;-80
2022/12/22 13:42:39;;;;;;;9.75;2.22;;;10.40;99.90;;;;;;5012790;28;20047;-80
2022/12/22 13:45:11;;;;;;;7.63;2.00;;;10.40;99.90;;;;;;5005792;28;20034;-80
2022/12/22 13:47:40;;;;;;;7.10;2.30;;;10.30;99.90;;;;;;5005920;28;20038;-80
2022/12/22 13:50:19;;;;;;;9.65;3.83;;;10.30;99.90;;;;;;5007123;28;20026;-80
2022/12/22 13:52:45;;;;;;;9.05;2.30;;;10.30;99.90;;;;;;5023663;28;20038;-80
2022/12/22 13:55:25;;;;;;;9.68;2.45;;;10.30;99.90;;;;;;5009001;28;20555;-80
2022/12/22 13:57:52;;;;;;;10.15;3.13;;;10.30;99.90;;;;;;5008853;28;20045;-79
2022/12/22 14:00:24;;;;;;;8.18;2.97;;;10.30;99.90;;;;;;5006730;28;20183;-80
2022/12/22 14:02:50;;;;;;;8.98;2.90;;;10.20;99.90;;;;;;5025515;28;20211;-80
2022/12/22 14:05:17;;;;;;;8.07;2.70;;;10.20;99.90;;;;;;5021507;28;20050;-80
2022/12/22 14:08:02;;;;;;;;;;;10.20;99.90;;;;;;5006764;28;20060;-80
2022/12/22 14:10:38;;;;;;;12.77;2.72;;;10.10;99.90;;;;;;5021304;28;20056;-80
2022/12/22 14:13:11;;;;;;;7.93;2.83;;;10.10;99.90;;;;;;5019407;28;20204;-80
2022/12/22 14:15:36;;;;;;;10.57;3.05;;;10.10;99.90;;;;;;5003663;28;20038;-80
2022/12/22 14:18:03;;;;;;;13.15;2.90;;;10.10;99.90;;;;;;5004528;28;20098;-80
2022/12/22 14:20:35;;;;;;;8.27;2.17;;;10.00;99.90;;;;;;4993107;28;20060;-80
2022/12/22 14:23:07;;;;;;;9.32;2.20;;;10.10;99.90;;;;;;5017956;28;20045;-78
2022/12/22 14:25:38;;;;;;;11.00;2.30;;;10.10;99.90;;;;;;5008445;28;20064;-78
2022/12/22 14:28:10;;;;;;;10.50;2.88;;;10.00;99.90;;;;;;5004613;28;20068;-79
2022/12/22 14:30:40;;;;;;;10.20;2.28;;;10.00;99.90;;;;;;5027857;28;20045;-80
2022/12/22 14:33:27;;;;;;;14.15;2.40;;;10.00;99.90;;;;;;5021691;28;20029;-80
2022/12/22 14:36:40;;;;;;;7.68;1.50;;;10.00;99.90;;;;;;5021797;28;20059;-80
2022/12/22 14:39:19;;;;;;;5.53;1.67;;;10.10;99.90;;;;;;5020085;28;20048;-80
2022/12/22 14:41:51;;;;;;;4.15;1.30;;;10.00;99.90;;;;;;5023444;28;20030;-80
2022/12/22 14:44:30;;;;;;;8.90;1.55;;;9.90;99.90;;;;;;5009071;28;20072;-80
2022/12/22 14:47:15;;;;;;;8.77;1.58;;;9.90;99.90;;;;;;5003992;28;20045;-80
2022/12/22 14:49:46;;;;;;;4.45;1.40;;;9.90;99.90;;;;;;5005454;28;20036;-79
2022/12/22 14:52:42;;;;;;;7.28;1.48;;;9.80;99.90;;;;;;5007058;28;20116;-80
2022/12/22 14:55:29;;;;;;;5.25;1.38;;;9.70;99.90;;;;;;5007460;28;20083;-80
2022/12/22 14:58:02;;;;;;;5.15;1.40;;;9.60;99.90;;;;;;5003538;28;20037;-80
2022/12/22 15:00:33;;;;;;;11.80;1.80;;;9.60;99.90;;;;;;5022403;28;20124;-79
2022/12/22 15:03:06;;;;;;;4.75;1.45;;;9.50;99.90;;;;;;5020278;28;20040;-80
2022/12/22 15:05:34;;;;;;;4.72;1.73;;;9.50;99.90;;;;;;5008344;28;20046;-80
2022/12/22 15:08:00;;;;;;;6.28;1.73;;;9.40;99.90;;;;;;5003064;28;20501;-80
2022/12/22 15:10:32;;;;;;;5.00;1.45;;;9.30;99.90;;;;;;4990566;28;20054;-79
2022/12/22 15:13:04;;;;;;;7.78;1.55;;;9.30;99.90;;;;;;5005082;28;20045;-79
2022/12/22 15:15:32;;;;;;;5.38;1.40;;;9.30;99.90;;;;;;5005273;28;20037;-79
2022/12/22 15:17:58;;;;;;;8.00;1.73;;;9.30;99.90;;;;;;4989633;28;20038;-79
2022/12/22 15:20:27;;;;;;;8.45;1.38;;;9.30;99.90;;;;;;5023736;28;20069;-79
2022/12/22 15:22:52;;;;;;;6.13;1.38;;;9.20;99.90;;;;;;5003007;28;20490;-79
2022/12/22 15:25:23;;;;;;;8.63;1.88;;;9.20;99.90;;;;;;4989456;28;20040;-79
2022/12/22 15:27:49;;;;;;;8.68;2.13;;;9.20;99.90;;;;;;5005099;28;20033;-79
2022/12/22 15:30:19;;;;;;;4.63;1.80;;;9.10;99.90;;;;;;5002052;28;20073;-79
2022/12/22 15:32:45;;;;;;;6.82;2.00;;;9.10;99.90;;;;;;5022139;28;20061;-79
2022/12/22 15:35:33;;;;;;;2.70;1.73;;;9.10;99.90;;;;;;5004173;28;20049;-79
2022/12/22 15:37:59;;;;;;;6.07;2.58;;;9.10;99.90;;;;;;5004820;28;20037;-81
2022/12/22 15:40:27;;;;;;;10.90;2.60;;;9.10;99.90;;;;;;5005295;28;20046;-80
2022/12/22 15:42:53;;;;;;;7.15;3.13;;;9.10;99.90;;;;;;5006773;28;20041;-80
2022/12/22 15:45:21;;;;;;;8.35;3.38;;;9.10;99.90;;;;;;5021007;28;20398;-80
2022/12/22 15:47:52;;;;;;;10.77;3.20;;;9.10;99.90;;;;;;5007311;28;20037;-80
2022/12/22 15:50:27;;;;;;;7.80;2.47;;;9.10;99.90;;;;;;5008494;28;20044;-80
2022/12/22 15:52:56;;;;;;;8.80;2.40;;;9.00;99.90;;;;;;5020706;28;20042;-80
2022/12/22 15:55:23;;;;;;;8.65;2.88;;;9.00;99.90;;;;;;5006281;28;20033;-80
2022/12/22 15:57:52;;;;;;;9.90;3.33;;;9.00;99.90;;;;;;5022108;28;20045;-81
2022/12/22 16:00:19;;;;;;;13.13;3.10;;;8.90;99.90;;;;;;5008169;28;20038;-81
2022/12/22 16:02:44;;;;;;;6.45;2.65;;;8.90;99.90;;;;;;5025598;28;20060;-81
2022/12/22 16:05:11;;;;;;;6.78;2.65;;;8.90;99.90;;;;;;4986326;28;20041;-81
2022/12/22 16:07:38;;;;;;;5.35;2.63;;;8.80;99.90;;;;;;5019375;28;20057;-81
2022/12/22 16:10:06;;;;;;;9.38;3.25;;;8.90;99.90;;;;;;5006982;28;20489;-81
2022/12/22 16:12:33;;;;;;;8.35;3.05;;;8.70;99.90;;;;;;5033345;28;20046;-81
2022/12/22 16:15:00;;;;;;;;;;;8.70;99.90;;;;;;5001069;28;20224;-80
2022/12/22 16:17:27;;;;;;;8.13;2.87;;;8.70;99.90;;;;;;5018575;28;19917;-82
2022/12/22 16:19:53;;;;;;;7.05;2.85;;;8.70;99.90;;;;;;5014697;28;20045;-86
2022/12/22 16:22:33;;;;;;;11.68;3.85;;;8.70;99.90;;;;;;5021367;28;20052;-85
2022/12/22 16:25:02;;;;;;;9.30;2.97;;;8.70;99.90;;;;;;4997124;28;20045;-84
2022/12/22 16:27:29;;;;;;;9.00;3.42;;;8.60;99.90;;;;;;5004274;28;20041;-85
2022/12/22 16:29:56;;;;;;;8.40;4.10;;;8.60;99.90;;;;;;4993041;28;20026;-84
2022/12/22 16:39:58;;;;;;;10.13;4.50;;;7.60;99.90;;;;;;4974295;28;20050;-85
2022/12/22 16:42:23;;;;;;;10.75;4.47;;;8.50;99.90;;;;;;5019328;28;20065;-84
2022/12/22 16:44:49;;;;;;;8.20;4.77;;;8.60;99.90;;;;;;5033612;28;20124;-87
2022/12/22 16:47:21;;;;;;;14.63;5.55;;;8.50;99.90;;;;;;5003886;28;20333;-85
2022/12/22 16:49:48;;;;;;;8.30;5.45;;;8.50;99.90;;;;;;5007299;28;20033;-85
2022/12/22 16:52:35;;;;;;;12.80;6.03;;;8.50;99.90;;;;;;5003053;28;20045;-86